createdAt,value
2018-02-25T00:02:23.986Z,58.99
2018-02-25T00:05:27.981Z,59.22
2018-02-25T00:08:31.298Z,59.44
2018-02-25T00:11:35.347Z,59.30
2018-02-25T00:14:38.644Z,59.41
2018-02-25T00:17:41.918Z,59.86
2018-02-25T00:20:45.181Z,60.07
2018-02-25T00:23:49.231Z,60.18
2018-02-25T00:26:52.496Z,60.94
2018-02-25T00:29:56.532Z,61.26
2018-02-25T00:33:00.844Z,60.96
2018-02-25T00:36:04.108Z,60.86
2018-02-25T00:39:08.149Z,60.80
2018-02-25T00:42:11.694Z,60.81
2018-02-25T00:45:14.965Z,60.86
2018-02-25T00:48:18.275Z,60.74
2018-02-25T00:51:21.645Z,61.26
2018-02-25T00:54:25.247Z,60.67
2018-02-25T00:57:29.379Z,61.05
2018-02-25T01:00:32.655Z,61.42
2018-02-25T01:03:36.769Z,61.63
2018-02-25T01:06:40.797Z,61.89
2018-02-25T01:09:44.068Z,61.67
2018-02-25T01:12:48.093Z,61.87
2018-02-25T01:15:52.134Z,61.66
2018-02-25T01:18:55.393Z,61.82
2018-02-25T01:21:58.662Z,61.83
2018-02-25T01:25:02.410Z,62.04
2018-02-25T01:28:06.434Z,61.98
2018-02-25T01:31:10.465Z,62.63
2018-02-25T01:34:13.749Z,62.73
2018-02-25T01:37:17.824Z,62.66
2018-02-25T01:40:21.107Z,62.79
2018-02-25T01:43:24.372Z,62.77
2018-02-25T01:46:27.861Z,62.28
2018-02-25T01:49:34.212Z,62.64
2018-02-25T01:52:37.478Z,62.42
2018-02-25T01:55:40.741Z,63.10
2018-02-25T01:58:44.077Z,63.02
2018-02-25T02:01:47.332Z,63.00
2018-02-25T02:04:50.600Z,63.52
2018-02-25T02:07:54.634Z,63.62
2018-02-25T02:10:57.913Z,63.20
2018-02-25T02:14:02.865Z,63.58
2018-02-25T02:17:06.146Z,63.73
2018-02-25T02:20:10.188Z,64.12
2018-02-25T02:23:13.677Z,64.58
2018-02-25T02:26:17.849Z,64.63
2018-02-25T02:29:21.129Z,64.85
2018-02-25T02:32:24.535Z,65.04
2018-02-25T02:35:27.813Z,64.61
2018-02-25T02:38:31.097Z,64.99
2018-02-25T02:41:35.110Z,64.87
2018-02-25T02:44:38.425Z,64.79
2018-02-25T02:47:42.523Z,65.17
2018-02-25T02:50:45.826Z,65.08
2018-02-25T02:53:49.158Z,64.86
2018-02-25T02:56:52.437Z,65.42
2018-02-25T02:59:55.705Z,65.38
2018-02-25T03:02:59.740Z,65.32
2018-02-25T03:06:03.015Z,65.67
2018-02-25T03:09:07.124Z,66.10
2018-02-25T03:12:11.162Z,65.80
2018-02-25T03:15:14.453Z,65.96
2018-02-25T03:18:18.507Z,66.17
2018-02-25T03:21:21.794Z,66.12
2018-02-25T03:24:25.164Z,66.02
2018-02-25T03:27:29.278Z,65.96
2018-02-25T03:30:33.315Z,66.26
2018-02-25T03:33:37.529Z,66.57
2018-02-25T03:36:40.808Z,66.45
2018-02-25T03:39:44.930Z,66.46
2018-02-25T03:42:48.216Z,66.57
2018-02-25T03:45:52.245Z,66.86
2018-02-25T03:48:55.518Z,66.69
2018-02-25T03:51:58.853Z,66.72
2018-02-25T03:55:02.117Z,67.13
2018-02-25T03:58:06.176Z,67.47
2018-02-25T04:01:09.447Z,67.41
2018-02-25T04:04:12.713Z,67.58
2018-02-25T04:07:15.994Z,67.23
2018-02-25T04:10:19.285Z,67.45
2018-02-25T04:13:22.557Z,67.68
2018-02-25T04:16:25.864Z,67.79
2018-02-25T04:19:29.856Z,68.22
2018-02-25T04:22:33.142Z,68.42
2018-02-25T04:25:37.262Z,68.24
2018-02-25T04:28:40.575Z,68.18
2018-02-25T04:31:43.864Z,68.35
2018-02-25T04:34:47.165Z,68.26
2018-02-25T04:37:50.436Z,68.09
2018-02-25T04:40:54.477Z,68.37
2018-02-25T04:43:57.769Z,68.49
2018-02-25T04:47:01.058Z,68.31
2018-02-25T04:50:05.177Z,68.67
2018-02-25T04:53:10.602Z,68.75
2018-02-25T04:56:13.868Z,68.77
2018-02-25T04:59:17.146Z,68.76
2018-02-25T05:02:20.441Z,69.18
2018-02-25T05:05:23.717Z,69.09
2018-02-25T05:08:26.988Z,69.64
2018-02-25T05:11:31.029Z,69.51
2018-02-25T05:14:34.305Z,69.35
2018-02-25T05:17:38.443Z,69.26
2018-02-25T05:20:41.712Z,69.51
2018-02-25T05:23:45.002Z,69.16
2018-02-25T05:26:48.351Z,69.45
2018-02-25T05:29:51.652Z,69.45
2018-02-25T05:32:54.934Z,69.69
2018-02-25T05:35:58.205Z,69.47
2018-02-25T05:39:01.487Z,69.63
2018-02-25T05:42:06.398Z,69.53
2018-02-25T05:45:09.778Z,69.35
2018-02-25T05:48:13.057Z,69.23
2018-02-25T05:51:17.106Z,69.10
2018-02-25T05:54:20.390Z,69.59
2018-02-25T05:57:23.665Z,69.17
2018-02-25T06:00:27.756Z,69.02
2018-02-25T06:03:31.035Z,68.97
2018-02-25T06:06:34.324Z,68.43
2018-02-25T06:09:37.610Z,68.68
2018-02-25T06:12:40.882Z,68.07
2018-02-25T06:15:45.017Z,68.75
2018-02-25T06:18:48.604Z,68.61
2018-02-25T06:21:52.749Z,68.41
2018-02-25T06:24:56.122Z,68.34
2018-02-25T06:27:59.436Z,67.73
2018-02-25T06:31:02.718Z,67.48
2018-02-25T06:34:06.849Z,67.63
2018-02-25T06:37:10.175Z,67.44
2018-02-25T06:40:14.177Z,67.54
2018-02-25T06:43:17.662Z,67.15
2018-02-25T06:46:20.995Z,67.72
2018-02-25T06:49:24.277Z,66.79
2018-02-25T06:52:27.548Z,67.04
2018-02-25T06:55:31.649Z,66.72
2018-02-25T06:58:34.958Z,66.27
2018-02-25T07:01:38.371Z,65.77
2018-02-25T07:04:41.693Z,66.30
2018-02-25T07:07:46.022Z,65.24
2018-02-25T07:10:49.440Z,64.93
2018-02-25T07:13:53.257Z,65.74
2018-02-25T07:16:57.047Z,64.67
2018-02-25T07:20:00.460Z,65.19
2018-02-25T07:23:03.768Z,65.03
2018-02-25T07:26:07.161Z,64.52
2018-02-25T07:29:10.563Z,64.83
2018-02-25T07:32:23.265Z,65.04
2018-02-25T07:35:28.099Z,64.19
2018-02-25T07:38:31.462Z,64.12
2018-02-25T07:41:35.573Z,63.08
2018-02-25T07:44:39.649Z,62.94
2018-02-25T07:47:43.098Z,63.32
2018-02-25T07:50:47.846Z,62.83
2018-02-25T07:53:51.125Z,63.93
2018-02-25T07:56:55.170Z,62.74
2018-02-25T07:59:58.659Z,61.14
2018-02-25T08:03:01.983Z,60.66
2018-02-25T08:06:05.241Z,60.97
2018-02-25T08:09:08.546Z,61.33
2018-02-25T08:12:11.867Z,60.58
2018-02-25T08:15:15.161Z,59.69
2018-02-25T08:18:18.489Z,59.15
2018-02-25T08:21:21.773Z,58.97
2018-02-25T08:24:25.043Z,58.52
2018-02-25T08:27:28.423Z,58.42
2018-02-25T08:30:31.737Z,57.96
2018-02-25T08:33:35.764Z,56.26
2018-02-25T08:36:39.106Z,55.77
2018-02-25T08:39:42.348Z,56.32
2018-02-25T08:42:45.628Z,54.81
2018-02-25T08:45:50.386Z,55.45
2018-02-25T08:48:54.174Z,55.47
2018-02-25T08:51:57.554Z,55.32
2018-02-25T08:55:00.970Z,55.38
2018-02-25T08:58:04.273Z,56.28
2018-02-25T09:01:07.561Z,53.83
2018-02-25T09:04:11.599Z,53.37
2018-02-25T09:07:14.901Z,52.24
2018-02-25T09:10:18.279Z,52.36
2018-02-25T09:13:21.595Z,51.96
2018-02-25T09:16:24.898Z,52.20
2018-02-25T09:19:29.376Z,52.72
2018-02-25T09:22:32.734Z,52.84
2018-02-25T09:25:36.036Z,51.24
2018-02-25T09:28:39.503Z,52.19
2018-02-25T09:31:42.810Z,51.76
2018-02-25T09:34:46.198Z,50.75
2018-02-25T09:37:49.610Z,51.48
2018-02-25T09:40:53.040Z,50.72
2018-02-25T09:43:56.530Z,51.09
2018-02-25T09:47:00.399Z,50.64
2018-02-25T09:50:04.499Z,50.03
2018-02-25T09:53:07.761Z,51.29
2018-02-25T09:56:11.137Z,50.84
2018-02-25T09:59:14.473Z,51.57
2018-02-25T10:02:17.830Z,50.50
2018-02-25T10:05:21.199Z,51.45
2018-02-25T10:08:24.506Z,51.24
2018-02-25T10:11:28.677Z,49.98
2018-02-25T10:14:31.986Z,48.35
2018-02-25T10:17:35.284Z,48.80
2018-02-25T10:20:38.632Z,48.72
2018-02-25T10:23:42.738Z,47.83
2018-02-25T10:26:46.144Z,47.51
2018-02-25T10:29:50.209Z,47.88
2018-02-25T10:32:53.490Z,47.52
2018-02-25T10:35:56.828Z,46.33
2018-02-25T10:39:00.882Z,47.56
2018-02-25T10:42:04.280Z,46.87
2018-02-25T10:45:07.649Z,46.44
2018-02-25T10:48:20.393Z,46.99
2018-02-25T10:51:40.200Z,47.38
2018-02-25T10:54:45.023Z,46.30
2018-02-25T10:57:48.539Z,46.34
2018-02-25T11:00:57.383Z,45.08
2018-02-25T11:04:00.670Z,46.20
2018-02-25T11:07:03.945Z,46.93
2018-02-25T11:10:07.467Z,47.10
2018-02-25T11:13:10.650Z,45.34
2018-02-25T11:16:13.990Z,45.71
2018-02-25T11:19:17.507Z,46.87
2018-02-25T11:22:20.812Z,45.72
2018-02-25T11:25:24.841Z,44.30
2018-02-25T11:28:28.168Z,44.41
2018-02-25T11:31:31.591Z,44.88
2018-02-25T11:34:34.814Z,43.70
2018-02-25T11:37:39.137Z,42.60
2018-02-25T11:40:42.479Z,44.42
2018-02-25T11:43:45.757Z,43.71
2018-02-25T11:46:49.817Z,43.59
2018-02-25T11:49:53.086Z,43.35
2018-02-25T11:52:57.137Z,43.31
2018-02-25T11:56:00.453Z,44.99
2018-02-25T11:59:05.033Z,43.64
2018-02-25T12:02:08.340Z,45.20
2018-02-25T12:05:11.618Z,41.70
2018-02-25T12:08:15.704Z,40.48
2018-02-25T12:11:19.334Z,41.77
2018-02-25T12:14:22.642Z,41.19
2018-02-25T12:17:26.996Z,41.33
2018-02-25T12:20:30.380Z,41.96
2018-02-25T12:23:33.702Z,39.91
2018-02-25T12:26:36.980Z,40.89
2018-02-25T12:29:40.354Z,41.36
2018-02-25T12:32:43.699Z,39.36
2018-02-25T12:35:46.999Z,40.03
2018-02-25T12:38:50.484Z,41.65
2018-02-25T12:41:53.752Z,41.75
2018-02-25T12:44:57.796Z,41.66
2018-02-25T12:48:01.120Z,41.89
2018-02-25T12:51:04.553Z,41.24
2018-02-25T12:54:08.675Z,40.74
2018-02-25T12:57:12.707Z,39.75
2018-02-25T13:03:34.638Z,41.53
2018-02-25T13:06:38.022Z,40.66
2018-02-25T13:09:41.366Z,39.82
2018-02-25T13:12:44.649Z,40.38
2018-02-25T13:15:48.688Z,40.63
2018-02-25T13:18:52.776Z,41.47
2018-02-25T13:21:58.976Z,41.69
2018-02-25T13:25:02.260Z,40.89
2018-02-25T13:28:05.534Z,42.02
2018-02-25T13:31:09.671Z,43.39
2018-02-25T13:34:13.984Z,41.99
2018-02-25T13:37:18.039Z,43.20
2018-02-25T13:40:21.325Z,43.21
2018-02-25T13:43:24.630Z,43.62
2018-02-25T13:46:29.165Z,45.25
2018-02-25T13:49:32.449Z,44.15
2018-02-25T13:52:35.749Z,42.63
2018-02-25T13:55:39.037Z,43.66
2018-02-25T13:58:42.306Z,43.88
2018-02-25T14:01:46.346Z,42.89
2018-02-25T14:04:49.646Z,42.98
2018-02-25T14:07:53.875Z,42.96
2018-02-25T14:10:57.157Z,43.12
2018-02-25T14:14:01.170Z,42.26
2018-02-25T14:17:04.438Z,42.88
2018-02-25T14:20:08.668Z,41.57
2018-02-25T14:23:12.740Z,41.48
2018-02-25T14:26:16.019Z,41.01
2018-02-25T14:29:19.284Z,40.67
2018-02-25T14:32:23.321Z,41.40
2018-02-25T14:35:26.589Z,42.94
2018-02-25T14:38:30.004Z,42.00
2018-02-25T14:41:38.298Z,42.08
2018-02-25T14:44:41.975Z,41.70
2018-02-25T14:47:45.287Z,42.31
2018-02-25T14:50:48.571Z,42.84
2018-02-25T14:53:51.860Z,43.74
2018-02-25T14:56:55.173Z,42.93
2018-02-25T14:59:58.514Z,42.51
2018-02-25T15:03:01.843Z,43.49
2018-02-25T15:06:05.133Z,43.90
2018-02-25T15:09:12.383Z,43.52
2018-02-25T15:12:16.571Z,43.42
2018-02-25T15:15:19.833Z,44.15
2018-02-25T15:18:23.109Z,43.17
2018-02-25T15:21:27.202Z,42.97
2018-02-25T15:24:31.927Z,43.77
2018-02-25T15:27:35.200Z,44.62
2018-02-25T15:30:38.610Z,44.71
2018-02-25T15:33:41.925Z,44.25
2018-02-25T15:36:45.210Z,43.30
2018-02-25T15:39:49.318Z,44.06
2018-02-25T15:42:52.693Z,43.81
2018-02-25T15:45:55.981Z,44.25
2018-02-25T15:48:59.275Z,44.08
2018-02-25T15:52:02.578Z,44.24
2018-02-25T15:55:05.845Z,44.04
2018-02-25T15:58:09.897Z,45.18
2018-02-25T16:01:13.181Z,44.31
2018-02-25T16:04:16.457Z,44.89
2018-02-25T16:07:20.496Z,45.73
2018-02-25T16:10:23.785Z,44.71
2018-02-25T16:13:27.825Z,45.55
2018-02-25T16:16:31.099Z,45.52
2018-02-25T16:19:35.130Z,46.36
2018-02-25T16:22:38.393Z,47.11
2018-02-25T16:25:42.459Z,46.06
2018-02-25T16:28:47.362Z,46.51
2018-02-25T16:32:01.014Z,46.47
2018-02-25T16:35:04.767Z,47.49
2018-02-25T16:38:08.061Z,46.44
2018-02-25T16:41:11.423Z,46.99
2018-02-25T16:44:14.713Z,47.16
2018-02-25T16:47:18.013Z,47.68
2018-02-25T16:50:21.351Z,47.13
2018-02-25T16:53:24.690Z,47.22
2018-02-25T16:56:28.745Z,48.28
2018-02-25T16:59:32.034Z,48.20
2018-02-25T17:02:35.307Z,47.84
2018-02-25T17:05:39.495Z,50.92
2018-02-25T17:08:42.934Z,50.10
2018-02-25T17:11:46.982Z,50.95
2018-02-25T17:14:50.274Z,49.80
2018-02-25T17:17:53.540Z,48.91
2018-02-25T17:20:57.762Z,50.17
2018-02-25T17:24:02.595Z,55.05
2018-02-25T17:27:10.745Z,57.58
2018-02-25T17:30:14.074Z,50.05
2018-02-25T17:33:17.365Z,51.55
2018-02-25T17:36:20.684Z,53.19
2018-02-25T17:39:24.750Z,51.03
2018-02-25T17:42:28.027Z,50.77
2018-02-25T17:45:31.301Z,50.68
2018-02-25T17:48:36.602Z,52.72
2018-02-25T17:51:39.881Z,51.34
2018-02-25T17:54:43.412Z,52.96
2018-02-25T17:57:46.687Z,53.83
2018-02-25T18:00:49.965Z,52.50
2018-02-25T18:03:53.493Z,51.70
2018-02-25T18:06:56.785Z,51.93
2018-02-25T18:10:00.075Z,52.73
2018-02-25T18:13:03.456Z,52.43
2018-02-25T18:16:07.591Z,52.67
2018-02-25T18:19:10.867Z,53.30
2018-02-25T18:22:14.144Z,53.79
2018-02-25T18:25:18.245Z,54.42
2018-02-25T18:28:21.527Z,54.14
2018-02-25T18:31:25.640Z,54.14
2018-02-25T18:34:28.909Z,54.06
2018-02-25T18:37:32.742Z,54.19
2018-02-25T18:40:36.018Z,54.53
2018-02-25T18:43:39.315Z,54.53
2018-02-25T18:46:42.609Z,54.94
2018-02-25T18:49:45.972Z,55.03
2018-02-25T18:52:49.246Z,55.01
2018-02-25T18:55:52.525Z,55.37
2018-02-25T18:58:56.550Z,55.26
2018-02-25T19:01:59.849Z,55.71
2018-02-25T19:05:03.135Z,55.84
2018-02-25T19:08:06.566Z,55.87
2018-02-25T19:11:10.638Z,56.05
2018-02-25T19:14:13.921Z,56.42
2018-02-25T19:17:17.378Z,56.53
2018-02-25T19:20:20.681Z,56.63
2018-02-25T19:23:23.945Z,57.04
2018-02-25T19:26:27.999Z,57.18
2018-02-25T19:29:32.028Z,58.03
2018-02-25T19:32:36.069Z,58.36
2018-02-25T19:35:45.903Z,60.67
2018-02-25T19:38:54.661Z,62.60
2018-02-25T19:41:57.959Z,63.24
2018-02-25T19:45:01.274Z,63.00
2018-02-25T19:48:04.877Z,62.20
2018-02-25T19:51:08.204Z,61.52
2018-02-25T19:54:12.240Z,60.91
2018-02-25T19:57:16.289Z,61.53
2018-02-25T20:00:19.562Z,61.13
2018-02-25T20:03:22.850Z,61.24
2018-02-25T20:06:27.237Z,61.14
2018-02-25T20:09:31.301Z,61.61
2018-02-25T20:12:34.623Z,61.50
2018-02-25T20:15:37.889Z,61.66
2018-02-25T20:18:41.536Z,61.61
2018-02-25T20:21:44.807Z,61.80
2018-02-25T20:24:48.103Z,61.75
2018-02-25T20:27:51.460Z,61.67
2018-02-25T20:30:55.112Z,61.77
2018-02-25T20:33:58.594Z,62.23
2018-02-25T20:37:02.103Z,62.44
2018-02-25T20:40:05.450Z,62.36
2018-02-25T20:43:08.825Z,62.43
2018-02-25T20:46:13.216Z,62.28
2018-02-25T20:49:17.367Z,62.68
2018-02-25T20:52:20.679Z,62.26
2018-02-25T20:55:24.661Z,62.64
2018-02-25T20:58:27.938Z,62.64
2018-02-25T21:01:32.074Z,62.73
2018-02-25T21:04:35.364Z,63.03
2018-02-25T21:07:38.638Z,62.76
2018-02-25T21:10:41.977Z,63.10
2018-02-25T21:13:45.571Z,63.43
2018-02-25T21:16:48.947Z,63.69
2018-02-25T21:19:52.296Z,64.16
2018-02-25T21:22:55.586Z,63.93
2018-02-25T21:25:58.878Z,63.74
2018-02-25T21:29:02.141Z,63.99
2018-02-25T21:32:06.182Z,63.97
2018-02-25T21:35:09.445Z,64.02
2018-02-25T21:38:12.772Z,64.29
2018-02-25T21:41:16.082Z,64.44
2018-02-25T21:44:19.370Z,64.58
2018-02-25T21:47:22.690Z,64.57
2018-02-25T21:50:25.958Z,64.83
2018-02-25T21:53:35.596Z,64.30
2018-02-25T21:56:45.121Z,65.07
2018-02-25T21:59:54.034Z,65.30
2018-02-25T22:03:02.906Z,65.31
2018-02-25T22:06:06.929Z,65.45
2018-02-25T22:09:10.227Z,65.53
2018-02-25T22:12:14.342Z,66.17
2018-02-25T22:15:17.622Z,65.93
2018-02-25T22:18:20.890Z,66.05
2018-02-25T22:21:24.168Z,66.05
2018-02-25T22:24:27.466Z,66.27
2018-02-25T22:27:30.836Z,66.05
2018-02-25T22:30:34.112Z,65.87
2018-02-25T22:33:38.153Z,66.48
2018-02-25T22:36:41.426Z,66.21
2018-02-25T22:39:45.569Z,66.67
2018-02-25T22:42:48.837Z,66.25
2018-02-25T22:45:52.882Z,66.05
2018-02-25T22:48:56.161Z,65.92
2018-02-25T22:52:00.292Z,66.32
2018-02-25T22:55:03.574Z,66.26
2018-02-25T22:58:07.698Z,66.65
2018-02-25T23:01:11.006Z,67.00
2018-02-25T23:04:14.314Z,66.85
2018-02-25T23:07:19.173Z,67.25
2018-02-25T23:10:22.488Z,67.67
2018-02-25T23:13:25.769Z,68.10
2018-02-25T23:16:29.037Z,68.31
2018-02-25T23:19:32.333Z,68.55
2018-02-25T23:22:35.630Z,69.13
2018-02-25T23:25:38.939Z,69.57
2018-02-25T23:28:42.232Z,69.65
2018-02-25T23:31:45.507Z,69.11
2018-02-25T23:34:50.489Z,68.94
2018-02-25T23:37:53.856Z,69.05
2018-02-25T23:40:57.142Z,68.80
2018-02-25T23:44:01.190Z,68.51
2018-02-25T23:47:04.483Z,68.59
2018-02-25T23:50:07.757Z,68.06
2018-02-25T23:53:11.046Z,67.93
2018-02-25T23:56:15.089Z,68.53
2018-02-25T23:59:18.469Z,68.07
